Time;durP1;ratioP1;P1;durP2;ratioP2;P2;SDS_P1;SDS_P2;PMS_P1;PMS_P2;Temp;Humidity;BMP_temperature;BMP_pressure;BME280_temperature;BME280_humidity;BME280_pressure;Samples;Min_cycle;Max_cycle;Signal;HPM_P1;HPM_P2
2022/09/08 00:00:53;;;;;;;14.35;7.15;;;;;;;;;;6197950;28;20022;-86
2022/09/08 00:03:54;;;;;;;19.93;8.17;;;;;;;;;;6197797;28;20476;-85
2022/09/08 00:06:54;;;;;;;19.17;8.80;;;;;;;;;;6187755;28;20072;-86
2022/09/08 00:09:55;;;;;;;15.57;8.63;;;;;;;;;;6183620;28;20101;-86
2022/09/08 00:12:55;;;;;;;13.32;7.30;;;;;;;;;;6174155;28;20011;-85
2022/09/08 00:15:55;;;;;;;17.97;8.30;;;;;;;;;;6198216;28;20026;-85
2022/09/08 00:18:56;;;;;;;15.77;8.00;;;;;;;;;;6195845;28;20022;-85
2022/09/08 00:21:56;;;;;;;15.63;7.70;;;;;;;;;;6194275;28;20030;-85
2022/09/08 00:24:57;;;;;;;13.20;7.67;;;;;;;;;;6197170;28;20062;-85
2022/09/08 00:27:57;;;;;;;15.27;7.53;;;;;;;;;;6196342;28;20057;-86
2022/09/08 00:30:59;;;;;;;15.63;7.30;;;;;;;;;;6198797;28;20018;-86
2022/09/08 00:33:59;;;;;;;14.05;7.40;;;;;;;;;;6179304;28;20018;-86
2022/09/08 00:36:59;;;;;;;16.48;8.82;;;;;;;;;;6178874;28;20097;-86
2022/09/08 00:40:00;;;;;;;15.10;8.10;;;;;;;;;;6197708;28;20035;-85
2022/09/08 00:43:02;;;;;;;14.48;7.43;;;;;;;;;;6179731;28;20033;-85
2022/09/08 00:46:08;;;;;;;19.48;8.75;;;;;;;;;;6179677;28;20169;-86
2022/09/08 00:49:08;;;;;;;17.98;7.28;;;;;;;;;;6197078;28;20022;-86
2022/09/08 00:52:09;;;;;;;15.75;7.00;;;;;;;;;;6196966;28;20023;-86
2022/09/08 00:55:09;;;;;;;13.27;7.90;;;;;;;;;;6180411;28;20759;-85
2022/09/08 00:58:10;;;;;;;18.10;8.30;;;;;;;;;;6197146;28;20400;-85
2022/09/08 01:01:10;;;;;;;12.83;7.83;;;;;;;;;;6179614;28;20475;-85
2022/09/08 01:04:11;;;;;;;14.25;7.95;;;;;;;;;;6190668;28;20022;-86
2022/09/08 01:13:59;;;;;;;13.98;7.10;;;;;;;;;;6196526;28;20030;-85
2022/09/08 01:17:10;;;;;;;18.25;7.95;;;;;;;;;;6196340;28;20029;-85
2022/09/08 01:20:11;;;;;;;15.27;7.53;;;;;;;;;;6198548;28;20030;-85
2022/09/08 01:23:28;;;;;;;14.60;7.27;;;;;;;;;;6192887;28;20114;-85
2022/09/08 01:26:36;;;;;;;15.18;7.43;;;;;;;;;;6177263;28;20064;-85
2022/09/08 01:29:36;;;;;;;16.70;7.50;;;;;;;;;;6176143;28;20480;-85
2022/09/08 01:32:38;;;;;;;14.27;7.63;;;;;;;;;;6190959;28;20022;-85
2022/09/08 01:35:39;;;;;;;12.77;7.32;;;;;;;;;;6195292;28;20092;-85
2022/09/08 01:38:40;;;;;;;12.03;6.40;;;;;;;;;;6178821;28;20023;-85
2022/09/08 01:41:40;;;;;;;15.60;6.93;;;;;;;;;;6175565;28;20410;-85
2022/09/08 01:44:40;;;;;;;12.68;5.88;;;;;;;;;;6182222;28;20101;-85
2022/09/08 01:47:41;;;;;;;15.83;6.70;;;;;;;;;;6176322;28;20415;-85
2022/09/08 01:50:41;;;;;;;18.40;7.47;;;;;;;;;;6178160;28;20378;-86
2022/09/08 01:53:41;;;;;;;16.50;7.30;;;;;;;;;;6194978;28;20594;-85
2022/09/08 01:56:41;;;;;;;16.55;7.35;;;;;;;;;;6178375;28;20269;-86
2022/09/08 01:59:41;;;;;;;15.70;7.30;;;;;;;;;;6192282;28;20141;-85
2022/09/08 02:02:42;;;;;;;16.97;8.20;;;;;;;;;;6177093;28;20053;-86
2022/09/08 02:05:42;;;;;;;17.43;8.70;;;;;;;;;;6195435;28;20023;-86
2022/09/08 02:08:43;;;;;;;13.35;7.38;;;;;;;;;;6197789;28;20029;-85
2022/09/08 02:11:43;;;;;;;18.13;8.52;;;;;;;;;;6196888;28;20120;-85
2022/09/08 02:14:43;;;;;;;14.20;8.43;;;;;;;;;;6192729;28;20085;-85
2022/09/08 02:17:44;;;;;;;17.77;7.43;;;;;;;;;;6197457;28;20068;-85
2022/09/08 02:20:44;;;;;;;12.07;6.63;;;;;;;;;;6199972;28;20664;-86
2022/09/08 02:23:45;;;;;;;13.75;7.88;;;;;;;;;;6195117;28;20258;-85
2022/09/08 02:26:45;;;;;;;12.50;7.13;;;;;;;;;;6181566;28;20841;-86
2022/09/08 02:29:46;;;;;;;15.67;8.13;;;;;;;;;;6195287;28;20030;-85
2022/09/08 02:32:46;;;;;;;11.50;6.38;;;;;;;;;;6195014;28;20353;-85
2022/09/08 02:35:46;;;;;;;16.27;7.43;;;;;;;;;;6191418;28;20026;-85
2022/09/08 02:38:50;;;;;;;14.70;7.72;;;;;;;;;;6194982;28;20022;-85
2022/09/08 02:41:50;;;;;;;14.93;6.85;;;;;;;;;;6195080;28;20029;-86
2022/09/08 02:44:50;;;;;;;16.00;7.50;;;;;;;;;;6199781;28;20022;-86
2022/09/08 02:47:51;;;;;;;10.50;6.70;;;;;;;;;;6188588;28;20027;-86
2022/09/08 02:50:51;;;;;;;14.75;7.47;;;;;;;;;;6196221;28;20057;-85
2022/09/08 02:53:53;;;;;;;15.20;7.35;;;;;;;;;;6202127;28;20022;-85
2022/09/08 02:56:54;;;;;;;13.90;7.20;;;;;;;;;;6202147;28;20501;-85
2022/09/08 02:59:55;;;;;;;15.68;7.97;;;;;;;;;;6181673;28;20038;-85
2022/09/08 03:02:55;;;;;;;14.93;6.85;;;;;;;;;;6187258;28;20418;-85
2022/09/08 03:05:55;;;;;;;12.80;7.68;;;;;;;;;;6181890;28;20020;-86
2022/09/08 03:08:55;;;;;;;13.57;7.50;;;;;;;;;;6198898;28;20077;-86
2022/09/08 03:11:56;;;;;;;12.75;7.32;;;;;;;;;;6199177;28;20940;-86
2022/09/08 03:14:56;;;;;;;16.05;8.85;;;;;;;;;;6181813;28;20280;-85
2022/09/08 03:17:56;;;;;;;15.47;8.57;;;;;;;;;;6196560;28;20061;-85
2022/09/08 03:21:00;;;;;;;14.23;8.60;;;;;;;;;;6194622;28;20033;-86
2022/09/08 03:24:02;;;;;;;11.45;7.78;;;;;;;;;;6198634;28;20041;-86
2022/09/08 03:27:02;;;;;;;15.07;8.60;;;;;;;;;;6181027;28;20112;-86
2022/09/08 03:30:03;;;;;;;14.60;8.57;;;;;;;;;;6184903;28;20019;-86
2022/09/08 03:33:04;;;;;;;13.43;7.32;;;;;;;;;;6195892;28;20018;-85
2022/09/08 03:36:05;;;;;;;14.30;7.30;;;;;;;;;;6198206;28;20450;-85
2022/09/08 03:39:05;;;;;;;13.55;8.48;;;;;;;;;;6202770;28;20793;-85
2022/09/08 03:42:06;;;;;;;15.80;9.00;;;;;;;;;;6195426;28;20023;-85
2022/09/08 03:45:07;;;;;;;12.52;7.38;;;;;;;;;;6183666;28;20160;-86
2022/09/08 03:48:08;;;;;;;16.60;9.75;;;;;;;;;;6197521;28;20026;-85
2022/09/08 03:51:12;;;;;;;16.53;9.07;;;;;;;;;;6180706;28;20105;-86
2022/09/08 03:57:32;;;;;;;13.85;7.75;;;;;;;;;;6194616;28;20034;-86
2022/09/08 04:00:32;;;;;;;16.58;10.15;;;;;;;;;;6198500;28;20410;-86
2022/09/08 04:03:32;;;;;;;16.23;8.97;;;;;;;;;;6196802;28;20050;-85
2022/09/08 04:06:33;;;;;;;14.68;7.85;;;;;;;;;;6196576;28;20081;-85
2022/09/08 04:09:33;;;;;;;17.93;9.47;;;;;;;;;;6198750;28;20025;-85
2022/09/08 04:12:34;;;;;;;12.63;8.53;;;;;;;;;;6172023;28;20043;-86
2022/09/08 04:15:37;;;;;;;14.32;8.77;;;;;;;;;;6173434;28;20458;-85
2022/09/08 04:18:37;;;;;;;15.00;9.55;;;;;;;;;;6174533;28;20030;-86
2022/09/08 04:21:37;;;;;;;17.07;9.70;;;;;;;;;;6170712;28;20026;-86
2022/09/08 04:24:38;;;;;;;17.15;9.40;;;;;;;;;;6172881;28;20266;-86
2022/09/08 04:27:38;;;;;;;17.05;9.07;;;;;;;;;;6173322;28;20089;-85
2022/09/08 04:30:38;;;;;;;14.77;8.67;;;;;;;;;;6172184;28;20390;-85
2022/09/08 04:33:38;;;;;;;20.97;10.27;;;;;;;;;;6175574;28;20014;-85
2022/09/08 04:36:39;;;;;;;18.92;8.43;;;;;;;;;;6173290;28;20059;-85
2022/09/08 04:39:39;;;;;;;15.67;7.87;;;;;;;;;;6184388;28;20398;-86
2022/09/08 04:42:39;;;;;;;15.10;8.70;;;;;;;;;;6175657;28;20050;-85
2022/09/08 04:45:39;;;;;;;17.88;8.25;;;;;;;;;;6171305;28;20702;-85
2022/09/08 04:48:40;;;;;;;17.67;9.37;;;;;;;;;;6167564;28;20033;-85
2022/09/08 04:51:42;;;;;;;15.80;8.10;;;;;;;;;;6158350;28;20464;-86
2022/09/08 04:54:43;;;;;;;15.75;8.23;;;;;;;;;;6169127;28;20329;-87
2022/09/08 04:57:43;;;;;;;14.13;7.53;;;;;;;;;;6171288;28;20022;-86
2022/09/08 05:00:43;;;;;;;14.00;7.97;;;;;;;;;;6173590;28;20049;-86
2022/09/08 05:03:43;;;;;;;18.60;9.20;;;;;;;;;;6172095;28;20397;-86
2022/09/08 05:06:44;;;;;;;16.03;8.73;;;;;;;;;;6163007;28;20038;-87
2022/09/08 05:09:44;;;;;;;13.93;8.88;;;;;;;;;;6168163;28;20109;-86
2022/09/08 05:12:45;;;;;;;13.67;7.10;;;;;;;;;;6169532;28;20069;-87
2022/09/08 05:15:45;;;;;;;13.85;8.05;;;;;;;;;;6163546;28;20046;-87
2022/09/08 05:18:46;;;;;;;21.00;8.10;;;;;;;;;;6160977;28;20018;-87
2022/09/08 05:21:46;;;;;;;12.23;7.90;;;;;;;;;;6164992;28;20507;-87
2022/09/08 05:24:46;;;;;;;15.70;8.60;;;;;;;;;;6170402;28;20029;-86
2022/09/08 05:27:50;;;;;;;14.93;8.40;;;;;;;;;;6169384;28;20029;-86
2022/09/08 05:30:50;;;;;;;14.20;7.15;;;;;;;;;;6172073;28;20019;-87
2022/09/08 05:33:51;;;;;;;13.40;7.17;;;;;;;;;;6171713;28;20059;-86
2022/09/08 05:36:51;;;;;;;14.73;7.57;;;;;;;;;;6170489;28;20077;-87
2022/09/08 05:39:51;;;;;;;18.50;8.03;;;;;;;;;;6170537;28;20097;-87
2022/09/08 05:42:51;;;;;;;13.87;8.33;;;;;;;;;;6157215;28;20031;-87
2022/09/08 05:45:52;;;;;;;21.33;8.90;;;;;;;;;;6179538;28;20025;-87
2022/09/08 05:48:53;;;;;;;14.70;8.50;;;;;;;;;;6163997;28;20068;-86
2022/09/08 05:51:53;;;;;;;17.17;7.63;;;;;;;;;;6167724;28;20457;-87
2022/09/08 05:54:54;;;;;;;13.90;6.90;;;;;;;;;;6169578;28;20027;-87
2022/09/08 05:57:58;;;;;;;12.68;7.72;;;;;;;;;;6163564;28;20097;-87
2022/09/08 06:00:59;;;;;;;15.75;7.72;;;;;;;;;;6163403;28;20029;-86
2022/09/08 06:03:59;;;;;;;;;;;;;;;;;;6166428;28;20458;-86
2022/09/08 06:06:59;;;;;;;11.45;8.02;;;;;;;;;;6167749;28;20660;-86
2022/09/08 06:09:59;;;;;;;13.63;7.55;;;;;;;;;;6158093;28;20027;-87
2022/09/08 06:13:00;;;;;;;12.73;7.38;;;;;;;;;;6185093;28;20121;-87
2022/09/08 06:16:01;;;;;;;14.70;8.10;;;;;;;;;;6175854;28;20150;-87
2022/09/08 06:19:02;;;;;;;16.77;8.02;;;;;;;;;;6191840;28;20143;-87
2022/09/08 06:22:02;;;;;;;12.25;7.93;;;;;;;;;;6188212;28;20048;-87
2022/09/08 06:25:03;;;;;;;14.90;8.20;;;;;;;;;;6197166;28;20028;-86
2022/09/08 06:28:10;;;;;;;13.30;6.82;;;;;;;;;;6193994;28;20051;-87
2022/09/08 06:31:11;;;;;;;14.23;7.78;;;;;;;;;;6193061;28;20023;-87
2022/09/08 06:34:15;;;;;;;14.90;7.35;;;;;;;;;;6194906;28;20026;-86
2022/09/08 06:37:27;;;;;;;13.48;8.65;;;;;;;;;;6189614;28;20105;-87
2022/09/08 06:40:27;;;;;;;16.10;8.20;;;;;;;;;;6166270;28;20026;-87
2022/09/08 06:43:31;;;;;;;12.57;7.43;;;;;;;;;;6179218;28;20030;-87
2022/09/08 06:46:34;;;;;;;12.45;7.45;;;;;;;;;;6178726;28;20030;-87
2022/09/08 06:49:34;;;;;;;13.38;7.63;;;;;;;;;;6189080;28;20030;-87
2022/09/08 06:52:34;;;;;;;12.85;6.47;;;;;;;;;;6194361;28;20022;-87
2022/09/08 06:55:40;;;;;;;11.75;7.20;;;;;;;;;;6191184;28;20100;-87
2022/09/08 06:58:44;;;;;;;15.13;7.63;;;;;;;;;;6189078;28;20022;-87
2022/09/08 07:01:49;;;;;;;12.65;6.75;;;;;;;;;;6187507;28;20057;-87
2022/09/08 07:05:01;;;;;;;16.42;7.53;;;;;;;;;;6186077;28;20477;-87
2022/09/08 07:08:08;;;;;;;12.20;7.95;;;;;;;;;;6173457;28;20028;-87
2022/09/08 07:11:31;;;;;;;12.65;6.90;;;;;;;;;;6194020;28;20232;-87
2022/09/08 07:14:50;;;;;;;20.10;7.70;;;;;;;;;;6179323;28;20022;-87
2022/09/08 07:17:53;;;;;;;14.15;6.97;;;;;;;;;;6187986;28;20022;-87
2022/09/08 07:21:03;;;;;;;13.27;7.43;;;;;;;;;;6173937;28;20069;-87
2022/09/08 07:24:04;;;;;;;12.48;7.97;;;;;;;;;;6184217;28;20460;-87
2022/09/08 07:27:05;;;;;;;13.82;7.68;;;;;;;;;;6188542;28;20026;-87
2022/09/08 07:30:06;;;;;;;13.50;7.90;;;;;;;;;;6188716;28;20019;-87
2022/09/08 07:33:14;;;;;;;14.43;7.13;;;;;;;;;;6190539;28;20494;-88
2022/09/08 07:36:14;;;;;;;16.08;7.35;;;;;;;;;;6190758;28;20025;-88
2022/09/08 07:39:20;;;;;;;12.80;7.00;;;;;;;;;;6195169;28;20494;-87
2022/09/08 07:42:20;;;;;;;16.80;7.85;;;;;;;;;;6179413;28;20282;-87
2022/09/08 07:45:26;;;;;;;13.70;8.17;;;;;;;;;;6200981;28;20018;-87
2022/09/08 07:48:34;;;;;;;13.68;8.02;;;;;;;;;;6198527;28;20057;-87
2022/09/08 07:51:38;;;;;;;13.50;6.88;;;;;;;;;;6183139;28;20042;-88
2022/09/08 07:55:02;;;;;;;10.40;6.97;;;;;;;;;;6184180;28;20022;-87
2022/09/08 07:58:25;;;;;;;11.30;6.70;;;;;;;;;;6195637;28;20022;-88
2022/09/08 08:01:40;;;;;;;12.38;6.90;;;;;;;;;;6178722;28;20023;-88
2022/09/08 08:05:05;;;;;;;11.02;6.78;;;;;;;;;;6199757;28;20018;-88
2022/09/08 08:08:11;;;;;;;10.68;7.20;;;;;;;;;;6179984;28;20470;-88
2022/09/08 08:11:30;;;;;;;10.07;7.28;;;;;;;;;;6197462;28;20121;-88
2022/09/08 08:14:45;;;;;;;11.70;7.28;;;;;;;;;;6175820;28;20389;-88
2022/09/08 08:17:50;;;;;;;10.52;6.65;;;;;;;;;;6181224;28;20026;-88
2022/09/08 08:20:50;;;;;;;12.25;7.43;;;;;;;;;;6178870;28;20018;-88
2022/09/08 08:23:51;;;;;;;12.50;7.20;;;;;;;;;;6179646;28;20022;-88
2022/09/08 08:26:58;;;;;;;15.07;7.17;;;;;;;;;;6179068;28;20477;-88
2022/09/08 08:30:11;;;;;;;10.43;7.43;;;;;;;;;;6175821;28;20296;-88
2022/09/08 08:33:16;;;;;;;11.80;6.18;;;;;;;;;;6196369;28;20101;-88
2022/09/08 08:36:19;;;;;;;10.45;6.47;;;;;;;;;;6197034;28;20105;-88
2022/09/08 08:39:23;;;;;;;11.52;6.53;;;;;;;;;;6189120;28;20019;-88
2022/09/08 08:42:32;;;;;;;14.50;6.93;;;;;;;;;;6182070;28;20026;-87
2022/09/08 08:45:41;;;;;;;10.73;6.35;;;;;;;;;;6188835;28;20033;-88
2022/09/08 08:48:45;;;;;;;12.63;6.53;;;;;;;;;;6191001;28;20480;-87
2022/09/08 09:09:05;;;;;;;14.47;6.40;;;;;;;;;;6292548;28;20406;-78
2022/09/08 09:12:11;;;;;;;12.90;6.72;;;;;;;;;;6278120;28;20060;-77
2022/09/08 09:15:38;;;;;;;10.63;6.70;;;;;;;;;;6263663;28;20104;-78
2022/09/08 09:18:50;;;;;;;9.13;6.45;;;;;;;;;;6287083;28;20020;-78
2022/09/08 09:22:04;;;;;;;10.68;6.38;;;;;;;;;;6271164;28;20032;-78
2022/09/08 09:25:11;;;;;;;10.23;6.88;;;;;;;;;;6273211;28;20051;-78
2022/09/08 09:28:20;;;;;;;11.43;6.63;;;;;;;;;;6277767;28;20116;-78
2022/09/08 09:31:20;;;;;;;7.38;6.18;;;;;;;;;;6279817;28;20047;-78
2022/09/08 09:34:20;;;;;;;8.47;7.03;;;;;;;;;;6275946;28;20460;-77
2022/09/08 09:37:20;;;;;;;;;;;;;;;;;;6285521;28;20313;-78
2022/09/08 09:40:23;;;;;;;10.52;7.00;;;;;;;;;;6279107;28;19925;-77
2022/09/08 09:43:37;;;;;;;8.13;6.30;;;;;;;;;;6281591;28;20033;-77
2022/09/08 09:46:47;;;;;;;10.43;6.68;;;;;;;;;;6282856;28;20044;-77
2022/09/08 09:50:28;;;;;;;8.45;7.10;;;;;;;;;;6258798;28;20029;-77
2022/09/08 09:53:47;;;;;;;9.38;6.93;;;;;;;;;;6164833;28;20023;-77
2022/09/08 09:56:47;;;;;;;9.85;6.32;;;;;;;;;;6145246;28;20505;-78
2022/09/08 09:59:59;;;;;;;9.37;6.00;;;;;;;;;;6265007;28;20500;-78
2022/09/08 10:03:19;;;;;;;10.57;6.30;;;;;;;;;;6265284;28;20298;-78
2022/09/08 10:06:29;;;;;;;12.48;6.38;;;;;;;;;;6259422;28;20016;-78
2022/09/08 10:09:36;;;;;;;9.82;6.00;;;;;;;;;;6257500;28;20108;-78
2022/09/08 10:12:39;;;;;;;10.05;6.68;;;;;;;;;;6261443;28;20518;-78
2022/09/08 10:16:05;;;;;;;11.30;6.10;;;;;;;;;;6268212;28;20040;-78
2022/09/08 10:19:25;;;;;;;9.18;7.15;;;;;;;;;;6257389;28;20021;-78
2022/09/08 10:22:40;;;;;;;7.47;5.65;;;;;;;;;;6273896;28;20036;-77
2022/09/08 10:25:48;;;;;;;11.60;6.68;;;;;;;;;;6253424;28;20035;-78
2022/09/08 10:28:59;;;;;;;10.48;6.40;;;;;;;;;;6266551;28;20076;-77
2022/09/08 10:31:59;;;;;;;;;;;;;;;;;;6253351;28;20496;-77
2022/09/08 10:35:18;;;;;;;8.15;6.38;;;;;;;;;;6248851;28;19909;-77
2022/09/08 10:38:19;;;;;;;10.35;6.60;;;;;;;;;;6245956;28;20032;-78
2022/09/08 10:41:34;;;;;;;10.70;7.00;;;;;;;;;;6253973;28;20083;-77
2022/09/08 10:44:35;;;;;;;8.13;6.78;;;;;;;;;;6267969;28;20598;-78
2022/09/08 10:47:35;;;;;;;;;;;;;;;;;;6253171;28;20033;-77
2022/09/08 10:50:43;;;;;;;9.43;6.45;;;;;;;;;;6281750;28;20199;-77
2022/09/08 10:54:03;;;;;;;9.13;5.95;;;;;;;;;;6271852;28;20388;-77
2022/09/08 10:57:21;;;;;;;7.65;6.40;;;;;;;;;;6272371;28;20036;-77
2022/09/08 11:00:23;;;;;;;11.77;7.47;;;;;;;;;;6271013;28;20029;-77
2022/09/08 11:03:44;;;;;;;9.98;6.57;;;;;;;;;;6263848;28;20056;-77
2022/09/08 11:07:04;;;;;;;17.17;7.22;;;;;;;;;;6263965;28;20045;-78
2022/09/08 11:10:25;;;;;;;10.82;7.15;;;;;;;;;;6268150;28;20040;-78
2022/09/08 11:13:37;;;;;;;9.05;6.72;;;;;;;;;;6251338;28;20111;-78
2022/09/08 11:16:50;;;;;;;10.70;7.18;;;;;;;;;;6263851;28;20029;-78
2022/09/08 11:20:01;;;;;;;12.70;6.60;;;;;;;;;;6263569;28;20094;-78
2022/09/08 11:23:21;;;;;;;8.20;6.53;;;;;;;;;;6263392;28;20391;-78
2022/09/08 11:26:21;;;;;;;12.43;6.80;;;;;;;;;;6269648;28;20107;-77
2022/09/08 11:29:24;;;;;;;10.73;7.38;;;;;;;;;;6273714;28;20047;-78
2022/09/08 11:32:32;;;;;;;10.13;7.50;;;;;;;;;;6261128;28;20048;-78
2022/09/08 11:35:52;;;;;;;9.25;6.82;;;;;;;;;;6277752;28;20032;-78
2022/09/08 11:39:03;;;;;;;11.95;8.13;;;;;;;;;;6262722;28;20053;-78
2022/09/08 11:42:03;;;;;;;;;;;;;;;;;;6267844;28;20396;-78
2022/09/08 11:45:16;;;;;;;10.90;7.40;;;;;;;;;;6248385;28;20292;-78
2022/09/08 11:48:34;;;;;;;9.80;7.20;;;;;;;;;;6260074;28;20173;-78
2022/09/08 11:51:50;;;;;;;8.68;6.88;;;;;;;;;;6261257;28;20034;-78
2022/09/08 11:55:02;;;;;;;11.43;7.85;;;;;;;;;;6261360;28;20023;-78
2022/09/08 11:58:12;;;;;;;12.52;8.27;;;;;;;;;;6265047;28;20017;-78
2022/09/08 12:01:15;;;;;;;16.92;8.05;;;;;;;;;;6260925;28;20021;-79
2022/09/08 12:04:34;;;;;;;18.80;7.90;;;;;;;;;;6249603;28;20025;-78
2022/09/08 12:07:34;;;;;;;12.02;8.38;;;;;;;;;;6272317;28;20687;-78
2022/09/08 12:10:34;;;;;;;12.40;8.10;;;;;;;;;;6263269;28;20473;-79
2022/09/08 12:13:51;;;;;;;15.55;8.25;;;;;;;;;;6249477;28;20052;-78
2022/09/08 12:16:51;;;;;;;9.50;7.05;;;;;;;;;;6251865;28;20395;-78
2022/09/08 12:20:15;;;;;;;14.23;8.15;;;;;;;;;;6269899;28;20052;-78
2022/09/08 12:23:22;;;;;;;13.32;7.82;;;;;;;;;;6262961;28;20041;-78
2022/09/08 12:26:22;;;;;;;15.25;7.85;;;;;;;;;;6250125;28;20044;-79
2022/09/08 12:29:41;;;;;;;12.65;8.20;;;;;;;;;;6259355;28;20025;-78
2022/09/08 12:32:47;;;;;;;12.98;8.73;;;;;;;;;;6258910;28;20487;-78
2022/09/08 12:35:59;;;;;;;10.77;7.90;;;;;;;;;;6254642;28;20018;-78
2022/09/08 12:38:59;;;;;;;12.95;7.93;;;;;;;;;;6274196;28;20017;-78
2022/09/08 12:42:05;;;;;;;10.47;7.60;;;;;;;;;;6257800;28;20033;-78
2022/09/08 12:45:24;;;;;;;15.98;8.38;;;;;;;;;;6260955;28;20366;-78
2022/09/08 12:48:43;;;;;;;17.42;8.45;;;;;;;;;;6266711;28;20143;-78
2022/09/08 12:51:44;;;;;;;14.65;7.90;;;;;;;;;;6283228;28;20368;-79
2022/09/08 12:55:10;;;;;;;12.73;7.88;;;;;;;;;;6253137;28;20019;-79
2022/09/08 12:58:24;;;;;;;10.63;8.10;;;;;;;;;;6264422;28;20045;-79
2022/09/08 13:01:30;;;;;;;13.80;7.43;;;;;;;;;;6270142;28;20024;-79
2022/09/08 13:04:40;;;;;;;11.63;7.80;;;;;;;;;;6269083;28;20702;-79
2022/09/08 13:07:45;;;;;;;17.20;8.97;;;;;;;;;;6260742;28;20056;-79
2022/09/08 13:10:46;;;;;;;14.15;9.00;;;;;;;;;;6245532;28;20017;-79
2022/09/08 13:13:46;;;;;;;12.95;8.15;;;;;;;;;;6246949;28;20022;-79
2022/09/08 13:16:46;;;;;;;;;;;;;;;;;;6240359;28;20380;-79
2022/09/08 13:19:59;;;;;;;14.57;10.17;;;;;;;;;;6274486;28;19909;-79
2022/09/08 13:23:05;;;;;;;14.73;8.95;;;;;;;;;;6261529;28;20021;-78
2022/09/08 13:26:17;;;;;;;16.55;9.80;;;;;;;;;;6262388;28;20025;-78
2022/09/08 13:29:26;;;;;;;20.30;10.48;;;;;;;;;;6256186;28;20021;-78
2022/09/08 13:32:45;;;;;;;15.40;9.93;;;;;;;;;;6271512;28;20029;-79
2022/09/08 13:35:46;;;;;;;16.55;10.55;;;;;;;;;;6263502;28;20013;-79
2022/09/08 13:38:46;;;;;;;;;;;;;;;;;;6249376;28;20028;-79
2022/09/08 13:42:06;;;;;;;14.32;9.30;;;;;;;;;;6244323;28;20006;-79
2022/09/08 13:45:18;;;;;;;14.35;9.55;;;;;;;;;;6269227;28;20563;-78
2022/09/08 13:48:24;;;;;;;13.15;10.05;;;;;;;;;;6272036;28;20053;-78
2022/09/08 13:51:35;;;;;;;12.63;10.00;;;;;;;;;;6261412;28;20052;-78
2022/09/08 13:54:35;;;;;;;;;;;;;;;;;;6270882;28;20029;-78
2022/09/08 13:57:54;;;;;;;15.68;9.27;;;;;;;;;;6283463;28;19909;-79
2022/09/08 14:01:04;;;;;;;13.73;10.43;;;;;;;;;;6274249;28;20104;-78
2022/09/08 14:04:14;;;;;;;14.40;10.57;;;;;;;;;;6278494;28;20021;-78
2022/09/08 14:07:19;;;;;;;18.63;10.75;;;;;;;;;;6273727;28;20044;-78
2022/09/08 14:10:28;;;;;;;15.30;10.68;;;;;;;;;;6255296;28;20068;-78
2022/09/08 14:13:32;;;;;;;18.13;11.05;;;;;;;;;;6270956;28;20009;-77
2022/09/08 14:16:32;;;;;;;16.38;11.30;;;;;;;;;;6270539;28;20052;-77
2022/09/08 14:19:54;;;;;;;19.13;11.57;;;;;;;;;;6239913;28;20017;-77
2022/09/08 14:23:13;;;;;;;13.95;10.85;;;;;;;;;;6256539;28;20615;-78
2022/09/08 14:26:19;;;;;;;14.85;10.15;;;;;;;;;;6249285;28;20029;-78
2022/09/08 14:29:19;;;;;;;19.45;10.90;;;;;;;;;;6264910;28;20056;-77
2022/09/08 14:32:32;;;;;;;14.52;10.85;;;;;;;;;;6251957;28;20020;-77
2022/09/08 14:35:40;;;;;;;13.98;10.45;;;;;;;;;;6259445;28;20020;-77
2022/09/08 14:38:50;;;;;;;16.52;11.27;;;;;;;;;;6257248;28;20363;-78
2022/09/08 14:41:55;;;;;;;13.70;11.27;;;;;;;;;;6266543;28;20048;-77
2022/09/08 14:45:04;;;;;;;15.00;11.45;;;;;;;;;;6266275;28;20021;-78
2022/09/08 14:48:04;;;;;;;14.95;11.25;;;;;;;;;;6277921;28;20037;-78
2022/09/08 14:51:13;;;;;;;17.20;11.27;;;;;;;;;;6267692;28;20034;-77
2022/09/08 14:54:23;;;;;;;12.63;10.82;;;;;;;;;;6266578;28;20021;-77
2022/09/08 14:57:28;;;;;;;15.68;12.20;;;;;;;;;;6264721;28;20025;-77
2022/09/08 15:00:36;;;;;;;16.67;12.35;;;;;;;;;;6273555;28;20438;-77
2022/09/08 15:03:40;;;;;;;19.35;13.88;;;;;;;;;;6261749;28;20421;-74
2022/09/08 15:06:40;;;;;;;19.17;14.00;;;;;;;;;;6266635;28;20175;-75
2022/09/08 15:10:05;;;;;;;19.00;15.07;;;;;;;;;;6266674;28;20017;-75
2022/09/08 15:13:14;;;;;;;20.58;15.43;;;;;;;;;;6255590;28;20635;-75
2022/09/08 15:16:17;;;;;;;20.77;15.70;;;;;;;;;;6250259;28;20020;-76
2022/09/08 15:19:54;;;;;;;19.33;16.60;;;;;;;;;;6267643;28;20514;-75
2022/09/08 15:23:04;;;;;;;22.10;17.38;;;;;;;;;;6143611;28;20027;-74
2022/09/08 15:26:07;;;;;;;20.08;16.83;;;;;;;;;;6280474;28;20092;-74
2022/09/08 15:29:13;;;;;;;20.50;15.90;;;;;;;;;;6253587;28;20025;-75
2022/09/08 15:32:32;;;;;;;22.48;18.58;;;;;;;;;;6257131;28;20385;-74
2022/09/08 15:35:51;;;;;;;22.48;17.92;;;;;;;;;;6257196;28;20190;-73
2022/09/08 15:39:04;;;;;;;28.33;20.73;;;;;;;;;;6251788;28;20048;-72
2022/09/08 15:42:11;;;;;;;29.23;23.67;;;;;;;;;;6269012;28;20484;-74
2022/09/08 15:45:11;;;;;;;36.60;26.15;;;;;;;;;;6257981;28;20026;-74
2022/09/08 15:48:16;;;;;;;32.60;25.42;;;;;;;;;;6267064;28;20040;-75
2022/09/08 15:51:22;;;;;;;40.63;26.63;;;;;;;;;;6270498;28;20021;-75
2022/09/08 15:54:22;;;;;;;34.88;28.65;;;;;;;;;;6265953;28;20469;-76
2022/09/08 15:57:42;;;;;;;38.23;29.57;;;;;;;;;;6275912;28;20291;-76
2022/09/08 16:00:48;;;;;;;33.83;27.98;;;;;;;;;;6253821;28;20403;-77
2022/09/08 16:04:03;;;;;;;38.00;28.63;;;;;;;;;;6268852;28;20407;-77
2022/09/08 16:07:24;;;;;;;37.15;29.63;;;;;;;;;;6264635;28;20530;-76
2022/09/08 16:10:25;;;;;;;37.85;29.67;;;;;;;;;;6243677;28;20036;-77
2022/09/08 16:13:28;;;;;;;40.00;29.80;;;;;;;;;;6273834;28;20021;-77
2022/09/08 16:16:40;;;;;;;38.97;30.30;;;;;;;;;;6261316;28;20017;-77
2022/09/08 16:19:42;;;;;;;38.63;30.73;;;;;;;;;;6260914;28;20017;-77
2022/09/08 16:22:42;;;;;;;;;;;;;;;;;;6272049;28;20051;-76
2022/09/08 16:25:47;;;;;;;40.58;32.15;;;;;;;;;;6262468;28;20344;-76
2022/09/08 16:28:58;;;;;;;45.25;32.53;;;;;;;;;;6261717;28;20017;-78
2022/09/08 16:32:15;;;;;;;42.80;33.53;;;;;;;;;;6268114;28;20013;-77
2022/09/08 16:35:27;;;;;;;38.65;29.10;;;;;;;;;;6275430;28;20067;-77
2022/09/08 16:38:37;;;;;;;69.28;29.42;;;;;;;;;;6251999;28;20036;-78
2022/09/08 16:41:42;;;;;;;50.47;30.10;;;;;;;;;;6255182;28;20473;-79
2022/09/08 16:44:54;;;;;;;39.95;26.08;;;;;;;;;;6255757;28;20037;-79
2022/09/08 16:47:57;;;;;;;38.38;24.42;;;;;;;;;;6265323;28;20536;-79
2022/09/08 16:51:09;;;;;;;44.22;27.00;;;;;;;;;;6263408;28;20024;-79
2022/09/08 16:54:33;;;;;;;62.90;36.75;;;;;;;;;;6266159;28;20131;-80
2022/09/08 16:57:41;;;;;;;95.55;40.78;;;;;;;;;;6251420;28;20136;-79
2022/09/08 17:01:00;;;;;;;73.00;37.25;;;;;;;;;;6247067;28;20043;-77
2022/09/08 17:04:02;;;;;;;66.25;32.00;;;;;;;;;;6259241;28;20033;-78
2022/09/08 17:07:03;;;;;;;53.75;26.30;;;;;;;;;;6272986;28;20051;-78
2022/09/08 17:10:07;;;;;;;45.35;23.70;;;;;;;;;;6266413;28;20438;-76
2022/09/08 17:13:22;;;;;;;47.80;22.30;;;;;;;;;;6266541;28;20016;-76
2022/09/08 17:16:27;;;;;;;47.42;21.80;;;;;;;;;;6257300;28;20040;-77
2022/09/08 17:19:47;;;;;;;40.97;21.15;;;;;;;;;;6273850;28;20029;-78
2022/09/08 17:23:02;;;;;;;46.55;20.73;;;;;;;;;;6243262;28;20048;-78
2022/09/08 17:26:20;;;;;;;50.80;23.08;;;;;;;;;;6274271;28;20111;-78
2022/09/08 17:29:45;;;;;;;45.97;23.55;;;;;;;;;;6284534;28;20491;-78
2022/09/08 17:32:45;;;;;;;60.47;24.08;;;;;;;;;;6273251;28;20021;-78
2022/09/08 17:35:46;;;;;;;45.37;22.03;;;;;;;;;;6270046;28;20022;-78
2022/09/08 17:38:57;;;;;;;48.00;23.75;;;;;;;;;;6266574;28;20029;-78
2022/09/08 17:42:01;;;;;;;38.75;21.75;;;;;;;;;;6255717;28;20032;-79
2022/09/08 17:45:01;;;;;;;42.70;19.80;;;;;;;;;;6264999;28;20442;-79
2022/09/08 17:48:01;;;;;;;38.70;19.17;;;;;;;;;;6271378;28;20036;-79
2022/09/08 17:51:17;;;;;;;33.00;16.43;;;;;;;;;;6265795;28;20051;-78
2022/09/08 17:54:29;;;;;;;27.75;16.00;;;;;;;;;;6271726;28;20039;-78
2022/09/08 17:57:31;;;;;;;26.17;16.38;;;;;;;;;;6273289;28;20358;-78
2022/09/08 18:00:32;;;;;;;22.95;12.88;;;;;;;;;;6268329;28;20487;-78
2022/09/08 18:03:32;;;;;;;;;;;;;;;;;;6269534;28;20424;-78
2022/09/08 18:06:36;;;;;;;13.98;9.77;;;;;;;;;;6256821;28;20291;-77
2022/09/08 18:09:48;;;;;;;13.57;6.68;;;;;;;;;;6268499;28;20222;-77
2022/09/08 18:12:48;;;;;;;12.20;6.50;;;;;;;;;;6261460;28;20025;-77
2022/09/08 18:15:55;;;;;;;10.17;6.73;;;;;;;;;;6262599;28;20028;-77
2022/09/08 18:19:23;;;;;;;11.70;6.68;;;;;;;;;;6258412;28;20025;-76
2022/09/08 18:22:43;;;;;;;26.42;6.65;;;;;;;;;;6200772;28;20038;-77
2022/09/08 18:26:00;;;;;;;1.50;1.42;;;;;;;;;;6213142;28;20037;-78
2022/09/08 18:29:04;;;;;;;12.35;2.35;;;;;;;;;;6256497;28;20033;-80
2022/09/08 18:32:08;;;;;;;3.35;3.03;;;;;;;;;;6269463;28;20513;-81
2022/09/08 18:35:27;;;;;;;1.90;1.63;;;;;;;;;;6263671;28;20059;-84
2022/09/08 18:38:30;;;;;;;1.70;1.60;;;;;;;;;;6287498;28;20033;-82
2022/09/08 18:41:34;;;;;;;3.55;3.20;;;;;;;;;;6282041;28;20120;-83
2022/09/08 18:44:39;;;;;;;1.17;1.13;;;;;;;;;;6273494;28;20551;-82
2022/09/08 18:47:51;;;;;;;1.35;1.25;;;;;;;;;;6265092;28;20031;-82